Strona główna
METAR-TAF:

METAR-TAF

Lotnisko :

Willoughby, Ohio, Stany Zjednoczone

Szerokość geograficzna: 41-41-02N, Długość geograficzna: 081-23-23W, wysokość: 191 m

Aktualna obserwacja pogody

Raport powstał 6 minut temu, godzina 01:35 UTC
Cisza
Temperatura 2°C
Wilgotność 69%
Ciśnienie 1019 hPa
Widzialność: 16.1 km
Rozproszone chmury na wysokości 9000 ft
Zachmurzenie całkowite na wysokości 11000 ft

METAR: KLNN 060135Z AUTO 00000KT 10SM SCT090 OVC110 02/M03 A3008 RMK AO1 T00191033

czas: 20:41 (01:41 UTC)


TAF: brakujący

Obserwacja i prognoza pogody dla ponad 4000 lotnisk (raport METAR i TAF).

Dostępne stacje oznaczono żółtymi i czerwonymi punktami na mapie.

Najedź kursorem aby zobaczyć nazwę stacji.

Kliknij aby zobaczyć obserwacje i prognozy pogody.

Aby zmienić mapę: kliknij na zielony przycisk z czarnym krzyżykiem, aby powiększyć; na zielony przycisk z myślnikiem, aby pomniejszyć; na zielone strzałki, aby przejść do map sąsiednich.


METAR-TAF: